Broen, Sweden

4:21 AM CET on December 21, 2014 (GMT +0100)
Eftra | Change Station
CLOSE
Current Station
Personal Weather Station
Location: Falkenberg, Halland
Elevation: 146 ft
Nearby Weather Stations

Elev 146 ft 56.86 °N, 12.65 °E | Updated 4 seconds ago

Clear
Clear
38.7 °F
Feels Like 31 °F
N
11.8
Wind Variable Wind from WSW
Gusts 19.0 mph

Today
High -- | Low -- °F
--% Chance of Precip.
Yesterday
High -- | Low -- °F
Precip. -- in
8:45 AM 3:29 PM
Waning Crescent, 1% visible
Pressure 29.83 in
Visibility 6.2 miles
Clouds
Windchill 31 °F
Dew Point 34 °F
Humidity 85%
Rainfall 0.00 in
Snow Depth Not available.
UV Not available.
Pollen Not available.
Air Quality Not available.
Flu Activity Not available.
METAR ESMT 210250Z AUTO 30014KT 9999 NCD 04/01 Q1010

More Conditions Fewer Conditions

Pressure 29.83 in
Visibility 6.2 miles
Clouds
Windchill 31 °F
Dew Point 34 °F
Humidity 85%
Rainfall 0.00 in
Snow Depth Not available.
UV Not available.
Pollen Not available.
Air Quality Not available.
Flu Activity Not available.
METAR ESMT 210250Z AUTO 30014KT 9999 NCD 04/01 Q1010

More Conditions Fewer Conditions

10-Day Weather Forecast

Almanac

Astronomy

Dec. 21, 2014 Rise Set
Actual Time
Civil Twilight
Nautical Twilight
Astronomical Twilight
Moon
Length of Visible Light
Length of Day
Tomorrow will be .
, % of the Moon is Illuminated

Today's Extremes

Country Highs Country Lows

Community

WunderPhotos

Upload Photos

1,779,352 photos uploaded!

WunderBlogs® & News

Nearby

Air Quality

  Air Quality AQ Index Pollutant
Not available.

Snow Depth

Station Depth Elevation

Earthquake Activity

City Distance Mag. Time & Date
Minimum magnitude displayed is 2.5.

Coastal Water Temperatures

Place Temperature

Nearby Weather Stations